METAR AND TAF INFORMATION
METAR FOR UATT
ADDS - METARS form results

(0923 UTC 22 July 2019)
Data provider http://aviationweather.gov/metar/data/
 
METAR text: UATT 220900Z 26008MPS CAVOK 30/07 Q1013 R31/////// NOSIG RMK QFE740/0986
Conditions at: UATT (AKTJUBINSK , KZ) observed 0900 UTC 22 July 2019
Temperature: 30.0°C (86°F)
Dewpoint: 7.0°C (45°F) [RH = 24%]
Pressure (altimeter): 29.91 inches Hg (1013.0 mb)
Winds: from the W (260 degrees) at 18 MPH (16 knots; 8.2 m/s)
Visibility: 6 or more miles (10+ km)
Ceiling: ceiling and visibility are OK
Clouds: unknown
Weather: no significant weather observed at this time

METAR text: UATT 220830Z 25008MPS CAVOK 29/07 Q1013 R31/99 NOSIG RMK QFE740/0986
Conditions at: UATT (AKTJUBINSK , KZ) observed 0830 UTC 22 July 2019
Temperature: 29.0°C (84°F)
Dewpoint: 7.0°C (45°F) [RH = 25%]
Pressure (altimeter): 29.91 inches Hg (1013.0 mb)
Winds: from the WSW (250 degrees) at 18 MPH (16 knots; 8.2 m/s)
Visibility: 6 or more miles (10+ km)
Ceiling: ceiling and visibility are OK
Clouds: unknown
Weather: no significant weather observed at this time

Forecast for: UATT (AKTJUBINSK , KZ)
Text: TAF UATT 220500Z 2206/2306 30005MPS CAVOK TX31/2211Z TN17/2301Z
Forecast period: 0600 to 1300 UTC 22 July 2019
Forecast type: FROM: standard forecast or significant change
Winds: from the WNW (300 degrees) at 12 MPH (10 knots; 5.1 m/s)
Visibility: 6 or more miles 10+ km)
Ceiling: unknown
Clouds: missing
Weather: no significant weather forecast for this period
Text: TEMPO 2206/2213 27011MPS
Forecast period: 0600 to 1300 UTC 22 July 2019
Forecast type: TEMPORARY: The following changes expected for less than half the time period
Winds: from the W (270 degrees) at 24 MPH (21 knots; 10.8 m/s)
Visibility: missing
Ceiling: unknown
Clouds: missing
Weather: no significant weather forecast for this period
Text: FM221300 27003MPS 9999 BKN050CB
Forecast period: 1300 UTC 22 July 2019 to 0600 UTC 23 July 2019
Forecast type: FROM: standard forecast or significant change
Winds: from the W (270 degrees) at 7 MPH (6 knots; 3.1 m/s)
Visibility: 6 or more miles 10+ km)
Ceiling: 5000 feet AGL
Clouds: broken clouds at 5000 feet AGL
Weather: no significant weather forecast for this period
Text: TEMPO 2213/2217 30008MPS
Forecast period: 1300 to 1700 UTC 22 July 2019
Forecast type: TEMPORARY: The following changes expected for less than half the time period
Winds: from the WNW (300 degrees) at 18 MPH (16 knots; 8.2 m/s)
Visibility: missing
Ceiling: unknown
Clouds: missing
Weather: no significant weather forecast for this period

 AIRPORT MAP

 RUNWAY INFORMATION

 AIRPORT FREQUENCIES
Type APP Name APP Frequency 120.9 MHZ
Type TWR Name TWR Frequency 120.9 MHZ

 AIRPORT NEAR NAVIGATION AIDS
Type VOR-DME Name Aktyubinsk Frequency 113400 KHZ
Type NDB Name Aktyubinsk Lom Frequency 323 KHZ
Type NDB Name Aktyubinsk Lom Frequency 323 KHZ



2018 Air Astana Virtual Airline